createdAt,value
2022-09-26T00:02:18.357Z,98437.75
2022-09-26T00:07:22.656Z,98434.73
2022-09-26T00:12:26.206Z,98434.30
2022-09-26T00:17:30.716Z,98431.84
2022-09-26T00:22:34.493Z,98425.23
2022-09-26T00:27:38.120Z,98422.02
2022-09-26T00:32:41.660Z,98421.94
2022-09-26T00:37:45.353Z,98412.11
2022-09-26T00:42:48.960Z,98405.77
2022-09-26T00:47:58.945Z,98399.13
2022-09-26T00:53:09.348Z,98396.98
2022-09-26T00:58:16.664Z,98399.44
2022-09-26T01:03:22.393Z,98394.95
2022-09-26T01:08:33.079Z,98392.90
2022-09-26T01:13:38.778Z,98399.02
2022-09-26T01:18:42.836Z,98392.39
2022-09-26T01:24:13.082Z,98385.02
2022-09-26T01:29:52.572Z,98385.17
2022-09-26T01:35:05.569Z,98382.15
2022-09-26T01:40:16.669Z,98373.17
2022-09-26T01:45:24.411Z,98368.57
2022-09-26T01:50:35.055Z,98359.94
2022-09-26T01:55:42.257Z,98357.70
2022-09-26T02:00:49.618Z,98353.56
2022-09-26T02:05:59.219Z,98356.94
2022-09-26T02:11:09.021Z,98347.15
2022-09-26T02:16:18.395Z,98348.54
2022-09-26T02:21:24.641Z,98345.42
2022-09-26T02:26:29.267Z,98334.60
2022-09-26T02:31:36.734Z,98337.76
2022-09-26T02:36:40.943Z,98339.40
2022-09-26T02:41:50.672Z,98345.27
2022-09-26T02:47:21.931Z,98347.13
2022-09-26T02:52:40.075Z,98334.20
2022-09-26T02:57:56.425Z,98331.38
2022-09-26T03:03:08.043Z,98325.36
2022-09-26T03:08:16.224Z,98317.27
2022-09-26T03:13:20.531Z,98310.11
2022-09-26T03:18:32.130Z,98305.71
2022-09-26T03:23:35.994Z,98292.35
2022-09-26T03:28:39.570Z,98284.61
2022-09-26T03:33:43.083Z,98274.88
2022-09-26T03:38:46.658Z,98264.60
2022-09-26T03:43:50.521Z,98264.31
2022-09-26T03:48:54.697Z,98258.23
2022-09-26T03:53:58.326Z,98257.34
2022-09-26T03:59:02.193Z,98259.86
2022-09-26T04:04:05.806Z,98268.08
2022-09-26T04:09:15.870Z,98271.69
2022-09-26T04:14:21.281Z,98274.45
2022-09-26T04:19:26.062Z,98272.08
2022-09-26T04:24:29.684Z,98270.44
2022-09-26T04:29:34.433Z,98267.64
2022-09-26T04:34:39.604Z,98264.23
2022-09-26T04:39:43.610Z,98265.54
2022-09-26T04:44:48.043Z,98260.23
2022-09-26T04:49:52.076Z,98250.48
2022-09-26T04:54:55.691Z,98244.91
2022-09-26T04:59:59.302Z,98238.02
2022-09-26T05:05:05.541Z,98239.84
2022-09-26T05:10:10.862Z,98239.02
2022-09-26T05:15:14.444Z,98232.61
2022-09-26T05:20:19.835Z,98225.02
2022-09-26T05:25:41.062Z,98218.04
2022-09-26T05:30:44.666Z,98215.69
2022-09-26T05:35:52.953Z,98223.23
2022-09-26T05:40:57.671Z,98224.15
2022-09-26T05:46:04.141Z,98228.95
2022-09-26T05:51:10.448Z,98224.98
2022-09-26T05:56:19.040Z,98229.46
2022-09-26T06:01:23.941Z,98228.79
2022-09-26T06:06:27.690Z,98225.41
2022-09-26T06:11:31.911Z,98221.27
2022-09-26T06:16:35.543Z,98221.23
2022-09-26T06:21:39.766Z,98220.02
2022-09-26T06:26:43.424Z,98218.04
2022-09-26T06:31:48.231Z,98210.64
2022-09-26T06:36:52.963Z,98209.77
2022-09-26T06:41:57.001Z,98207.27
2022-09-26T06:47:01.360Z,98210.14
2022-09-26T06:52:05.134Z,98212.48
2022-09-26T06:57:14.168Z,98209.24
2022-09-26T07:02:19.406Z,98209.36
2022-09-26T07:07:23.357Z,98210.66
2022-09-26T07:12:28.024Z,98210.37
2022-09-26T07:17:31.735Z,98210.41
2022-09-26T07:22:35.497Z,98201.80
2022-09-26T07:27:39.370Z,98196.92
2022-09-26T07:34:46.296Z,98197.38
2022-09-26T07:39:54.762Z,98197.83
2022-09-26T07:45:27.891Z,98203.61
2022-09-26T07:50:29.075Z,98203.73
2022-09-26T07:55:56.138Z,98201.34
2022-09-26T08:01:02.452Z,98199.45
2022-09-26T08:06:10.126Z,98194.48
2022-09-26T08:11:19.873Z,98199.02
2022-09-26T08:16:27.071Z,98201.58
2022-09-26T08:21:35.395Z,98198.80
2022-09-26T08:26:44.629Z,98192.71
2022-09-26T08:31:55.131Z,98194.36
2022-09-26T08:37:02.664Z,98198.83
2022-09-26T08:42:24.342Z,98198.25
2022-09-26T08:47:44.806Z,98196.52
2022-09-26T08:52:55.476Z,98196.83
2022-09-26T08:58:06.740Z,98194.63
2022-09-26T09:03:27.603Z,98195.65
2022-09-26T09:08:39.887Z,98198.50
2022-09-26T09:13:57.687Z,98197.80
2022-09-26T09:19:14.363Z,98202.45
2022-09-26T09:24:39.593Z,98202.70
2022-09-26T09:30:15.730Z,98205.53
2022-09-26T09:35:31.402Z,98203.44
2022-09-26T09:40:42.864Z,98202.13
2022-09-26T09:45:52.640Z,98205.30
2022-09-26T09:51:13.557Z,98205.39
2022-09-26T09:56:32.389Z,98200.13
2022-09-26T10:01:43.737Z,98201.52
2022-09-26T10:06:52.787Z,98199.32
2022-09-26T10:12:00.274Z,98192.86
2022-09-26T10:17:22.571Z,98194.86
2022-09-26T10:22:37.607Z,98190.82
2022-09-26T10:27:51.894Z,98186.83
2022-09-26T10:33:01.625Z,98187.52
2022-09-26T10:38:19.990Z,98180.30
2022-09-26T10:43:33.802Z,98177.80
2022-09-26T10:48:49.057Z,98168.66
2022-09-26T10:54:01.335Z,98159.34
2022-09-26T10:59:10.363Z,98152.06
2022-09-26T11:04:39.422Z,98152.96
2022-09-26T11:09:48.449Z,98153.66
2022-09-26T11:14:59.637Z,98149.71
2022-09-26T11:20:10.823Z,98149.92
2022-09-26T11:25:25.719Z,98143.80
2022-09-26T11:30:35.932Z,98142.04
2022-09-26T11:35:56.401Z,98139.86
2022-09-26T11:41:36.920Z,98124.46
2022-09-26T11:46:58.699Z,98112.83
2022-09-26T11:52:18.109Z,98106.56
2022-09-26T11:57:45.725Z,98104.39
2022-09-26T12:03:17.362Z,98104.35
2022-09-26T12:08:40.779Z,98110.09
2022-09-26T12:13:55.109Z,98109.02
2022-09-26T12:19:11.608Z,98104.34
2022-09-26T12:24:32.664Z,98098.69
2022-09-26T12:29:45.713Z,98104.15
2022-09-26T12:35:08.323Z,98100.61
2022-09-26T12:40:33.521Z,98102.13
2022-09-26T12:46:10.746Z,98095.50
2022-09-26T12:51:28.838Z,98091.52
2022-09-26T12:56:49.088Z,98085.18
2022-09-26T13:02:19.612Z,98089.33
2022-09-26T13:07:42.376Z,98090.86
2022-09-26T13:13:23.678Z,98091.31
2022-09-26T13:18:39.988Z,98093.94
2022-09-26T13:23:54.166Z,98090.81
2022-09-26T13:29:17.281Z,98089.27
2022-09-26T13:34:35.586Z,98081.55
2022-09-26T13:39:49.260Z,98078.15
2022-09-26T13:45:09.120Z,98075.27
2022-09-26T13:50:34.115Z,98074.99
2022-09-26T13:55:43.510Z,98065.61
2022-09-26T14:00:53.603Z,98053.12
2022-09-26T14:06:29.175Z,98047.81
2022-09-26T14:11:51.585Z,98043.11
2022-09-26T14:17:03.298Z,98037.87
2022-09-26T14:29:55.937Z,98034.31
2022-09-26T14:35:05.573Z,98034.95
2022-09-26T14:40:29.075Z,98042.80
2022-09-26T14:45:49.984Z,98039.98
2022-09-26T14:51:00.648Z,98034.36
2022-09-26T14:56:11.665Z,98034.20
2022-09-26T15:01:25.193Z,98038.27
2022-09-26T15:06:37.978Z,98031.08
2022-09-26T15:11:47.682Z,98028.58
2022-09-26T15:16:58.054Z,98026.27
2022-09-26T15:22:13.511Z,98025.52
2022-09-26T15:27:27.294Z,98025.44
2022-09-26T15:32:35.187Z,98023.16
2022-09-26T15:37:42.752Z,98019.73
2022-09-26T15:43:03.308Z,98016.64
2022-09-26T15:48:27.584Z,98017.58
2022-09-26T15:53:39.915Z,98022.49
2022-09-26T15:58:53.887Z,98025.46
2022-09-26T16:04:03.604Z,98019.98
2022-09-26T16:09:20.807Z,98017.20
2022-09-26T16:14:33.496Z,98014.73
2022-09-26T16:19:47.769Z,98006.54
2022-09-26T16:24:55.376Z,98003.20
2022-09-26T16:30:05.278Z,98001.83
2022-09-26T16:35:20.332Z,98009.84
2022-09-26T16:40:28.056Z,98016.55
2022-09-26T16:45:36.086Z,98016.17
2022-09-26T16:50:43.485Z,98014.14
2022-09-26T16:55:52.693Z,98004.59
2022-09-26T17:01:17.472Z,98009.55
2022-09-26T17:06:24.643Z,98010.42
2022-09-26T17:11:31.650Z,98011.60
2022-09-26T17:16:38.752Z,98006.77
2022-09-26T17:21:49.492Z,98002.67
2022-09-26T17:27:02.361Z,97998.14
2022-09-26T17:32:15.403Z,97999.09
2022-09-26T17:37:23.291Z,98002.85
2022-09-26T17:42:30.832Z,98002.69
2022-09-26T17:47:38.045Z,98005.63
2022-09-26T17:52:45.465Z,98007.88
2022-09-26T17:57:52.460Z,98012.48
2022-09-26T18:03:05.162Z,98016.43
2022-09-26T18:08:22.324Z,98010.62
2022-09-26T18:13:34.139Z,98004.83
2022-09-26T18:18:41.019Z,98000.86
2022-09-26T18:23:51.914Z,97993.56
2022-09-26T18:29:00.091Z,98003.42
2022-09-26T18:34:08.055Z,98005.55
2022-09-26T18:39:15.326Z,98011.69
2022-09-26T18:44:22.834Z,98011.66
2022-09-26T18:49:31.225Z,98018.05
2022-09-26T18:54:38.684Z,98020.18
2022-09-26T18:59:45.823Z,98016.94
2022-09-26T19:04:54.973Z,98019.03
2022-09-26T19:10:02.632Z,98015.79
2022-09-26T19:15:16.632Z,98019.01
2022-09-26T19:20:23.840Z,98012.46
2022-09-26T19:25:31.293Z,98011.14
2022-09-26T19:30:38.620Z,98005.30
2022-09-26T19:35:47.654Z,98003.04
2022-09-26T19:40:55.160Z,98000.79
2022-09-26T19:46:04.670Z,98001.50
2022-09-26T19:51:17.046Z,98003.16
2022-09-26T19:56:26.544Z,98005.52
2022-09-26T20:01:34.036Z,98004.45
2022-09-26T20:06:41.601Z,98005.09
2022-09-26T20:11:48.853Z,98005.58
2022-09-26T20:16:58.714Z,98007.02
2022-09-26T20:22:12.839Z,98011.42
2022-09-26T20:27:23.321Z,98011.48
2022-09-26T20:32:30.425Z,98019.38
2022-09-26T20:37:41.151Z,98026.42
2022-09-26T20:42:51.937Z,98030.71
2022-09-26T20:47:59.525Z,98030.23
2022-09-26T20:53:17.544Z,98024.06
2022-09-26T20:58:25.240Z,98024.75
2022-09-26T21:03:33.286Z,98022.52
2022-09-26T21:08:40.518Z,98015.48
2022-09-26T21:13:47.736Z,98015.91
2022-09-26T21:18:55.514Z,98012.33
2022-09-26T21:24:03.359Z,98008.70
2022-09-26T21:29:17.261Z,98002.09
2022-09-26T21:34:27.160Z,98002.76
2022-09-26T21:39:34.544Z,97999.80
2022-09-26T21:44:44.741Z,97997.63
2022-09-26T21:49:51.883Z,97994.55
2022-09-26T21:55:00.717Z,97990.10
2022-09-26T22:00:10.558Z,97983.70
2022-09-26T22:05:18.588Z,97975.50
2022-09-26T22:10:26.012Z,97977.17
2022-09-26T22:17:04.391Z,97973.78
2022-09-26T22:22:11.368Z,97964.47
2022-09-26T22:27:16.629Z,97959.04
2022-09-26T22:32:23.646Z,97948.39
2022-09-26T22:37:31.044Z,97943.83
2022-09-26T22:42:38.142Z,97932.02
2022-09-26T22:47:43.406Z,97923.03
2022-09-26T22:52:50.236Z,97924.67
2022-09-26T22:57:55.576Z,97923.99
2022-09-26T23:03:02.374Z,97919.45
2022-09-26T23:08:09.468Z,97916.57
2022-09-26T23:13:16.364Z,97912.60
2022-09-26T23:18:22.082Z,97908.30
2022-09-26T23:23:28.936Z,97909.21
2022-09-26T23:28:36.440Z,97908.14
2022-09-26T23:33:43.337Z,97914.45
2022-09-26T23:38:53.509Z,97910.69
2022-09-26T23:44:00.680Z,97904.67
2022-09-26T23:49:07.806Z,97903.26
2022-09-26T23:54:13.124Z,97901.02
2022-09-26T23:59:19.975Z,97898.35
